createdAt,value
2022-11-04T00:03:12.798Z,6.65
2022-11-04T00:08:15.795Z,6.68
2022-11-04T00:13:17.452Z,6.66
2022-11-04T00:18:19.441Z,6.59
2022-11-04T00:23:22.807Z,6.51
2022-11-04T00:28:24.844Z,6.36
2022-11-04T00:33:27.424Z,6.28
2022-11-04T00:38:31.002Z,6.12
2022-11-04T00:43:32.891Z,6.01
2022-11-04T00:48:35.181Z,5.84
2022-11-04T00:53:38.154Z,5.85
2022-11-04T00:58:40.013Z,5.87
2022-11-04T01:03:41.945Z,5.90
2022-11-04T01:08:45.002Z,6.00
2022-11-04T01:13:50.106Z,6.11
2022-11-04T01:18:51.765Z,6.13
2022-11-04T01:23:55.285Z,6.21
2022-11-04T01:28:57.833Z,6.20
2022-11-04T01:33:59.801Z,6.11
2022-11-04T01:39:03.116Z,6.17
2022-11-04T01:44:46.589Z,6.22
2022-11-04T01:49:52.284Z,6.32
2022-11-04T01:54:59.914Z,6.41
2022-11-04T02:00:05.254Z,6.38
2022-11-04T02:05:07.795Z,6.45
2022-11-04T02:10:12.351Z,6.41
2022-11-04T02:15:14.463Z,6.37
2022-11-04T02:20:30.615Z,6.40
2022-11-04T02:26:08.001Z,6.38
2022-11-04T02:31:19.022Z,6.34
2022-11-04T02:36:30.514Z,6.47
2022-11-04T02:41:41.120Z,6.67
2022-11-04T02:46:51.270Z,6.68
2022-11-04T02:52:01.410Z,6.69
2022-11-04T02:57:07.733Z,6.76
2022-11-04T03:02:17.388Z,6.92
2022-11-04T03:07:24.966Z,7.04
2022-11-04T03:12:32.896Z,7.09
2022-11-04T03:17:43.997Z,7.04
2022-11-04T03:22:46.081Z,7.01
2022-11-04T03:27:54.566Z,7.00
2022-11-04T03:33:03.912Z,6.99
2022-11-04T03:38:05.931Z,7.07
2022-11-04T03:43:12.019Z,7.10
2022-11-04T03:48:15.410Z,7.05
2022-11-04T03:53:20.558Z,7.07
2022-11-04T03:58:33.783Z,7.07
2022-11-04T04:03:47.010Z,7.10
2022-11-04T04:08:53.471Z,7.12
2022-11-04T04:14:09.623Z,7.13
2022-11-04T04:19:16.735Z,7.18
2022-11-04T04:24:22.883Z,7.31
2022-11-04T04:29:26.155Z,7.26
2022-11-04T04:34:31.606Z,7.23
2022-11-04T04:39:38.905Z,7.26
2022-11-04T04:44:42.867Z,7.27
2022-11-04T04:49:51.400Z,7.27
2022-11-04T04:54:53.707Z,7.26
2022-11-04T04:59:55.319Z,7.29
2022-11-04T05:04:58.332Z,7.34
2022-11-04T05:10:00.373Z,7.34
2022-11-04T05:15:02.009Z,7.34
2022-11-04T05:20:05.854Z,7.39
2022-11-04T05:25:08.039Z,7.39
2022-11-04T05:30:10.703Z,7.40
2022-11-04T05:35:13.790Z,7.46
2022-11-04T05:40:15.493Z,7.53
2022-11-04T05:45:17.294Z,7.53
2022-11-04T05:50:20.288Z,7.60
2022-11-04T05:55:22.630Z,7.72
2022-11-04T06:00:24.981Z,7.81
2022-11-04T06:05:28.123Z,7.80
2022-11-04T06:10:29.790Z,7.79
2022-11-04T06:15:31.753Z,7.85
2022-11-04T06:20:34.728Z,7.97
2022-11-04T06:25:36.361Z,7.99
2022-11-04T06:30:38.245Z,8.02
2022-11-04T06:35:41.395Z,8.09
2022-11-04T06:40:43.093Z,8.16
2022-11-04T06:45:45.256Z,8.17
2022-11-04T06:50:48.759Z,8.24
2022-11-04T06:55:51.690Z,8.32
2022-11-04T07:00:53.939Z,8.48
2022-11-04T07:05:57.892Z,8.68
2022-11-04T07:10:59.999Z,8.94
2022-11-04T07:16:04.978Z,9.20
2022-11-04T07:21:10.250Z,9.31
2022-11-04T07:26:12.574Z,9.40
2022-11-04T07:31:14.827Z,9.40
2022-11-04T07:36:18.709Z,9.45
2022-11-04T07:41:21.338Z,9.59
2022-11-04T07:46:23.070Z,9.71
2022-11-04T07:51:27.280Z,9.76
2022-11-04T07:56:31.628Z,9.86
2022-11-04T08:01:33.473Z,9.93
2022-11-04T08:06:37.164Z,10.00
2022-11-04T08:11:39.153Z,10.12
2022-11-04T08:16:40.848Z,10.18
2022-11-04T08:21:43.865Z,10.25
2022-11-04T08:26:45.928Z,10.25
2022-11-04T08:31:48.043Z,10.36
2022-11-04T08:36:51.010Z,10.37
2022-11-04T08:41:53.429Z,10.65
2022-11-04T08:46:55.504Z,10.73
2022-11-04T08:51:59.306Z,10.94
2022-11-04T08:57:01.422Z,10.92
2022-11-04T09:02:03.172Z,10.98
2022-11-04T09:07:08.316Z,10.86
2022-11-04T09:12:10.997Z,10.87
2022-11-04T09:17:12.994Z,11.03
2022-11-04T09:22:16.573Z,11.02
2022-11-04T09:27:18.862Z,10.99
2022-11-04T09:32:20.531Z,11.01
2022-11-04T09:37:23.610Z,11.02
2022-11-04T09:42:41.796Z,10.96
2022-11-04T09:47:46.030Z,11.01
2022-11-04T09:52:54.573Z,10.98
2022-11-04T09:57:58.779Z,11.06
2022-11-04T10:03:21.902Z,11.26
2022-11-04T10:08:45.298Z,11.25
2022-11-04T10:14:02.437Z,11.26
2022-11-04T10:19:25.296Z,11.28
2022-11-04T10:24:41.197Z,11.38
2022-11-04T10:29:47.356Z,11.51
2022-11-04T10:34:53.949Z,11.38
2022-11-04T10:40:05.859Z,11.06
2022-11-04T10:45:12.845Z,11.09
2022-11-04T10:50:28.895Z,11.15
2022-11-04T10:55:38.768Z,11.28
2022-11-04T11:00:41.532Z,11.16
2022-11-04T11:05:43.634Z,11.02
2022-11-04T11:10:52.078Z,10.99
2022-11-04T11:16:06.536Z,10.92
2022-11-04T11:21:12.490Z,10.81
2022-11-04T11:26:19.323Z,10.82
2022-11-04T11:31:21.480Z,10.78
2022-11-04T11:36:25.112Z,10.80
2022-11-04T11:41:29.197Z,10.78
2022-11-04T11:46:33.335Z,10.81
2022-11-04T11:51:37.034Z,10.72
2022-11-04T11:57:07.218Z,10.68
2022-11-04T12:02:25.964Z,10.89
2022-11-04T12:13:22.963Z,10.96
2022-11-04T12:18:49.493Z,10.91
2022-11-04T12:23:55.952Z,10.82
2022-11-04T12:29:20.568Z,10.82
2022-11-04T12:34:32.757Z,10.81
2022-11-04T12:39:53.286Z,10.85
2022-11-04T12:45:07.862Z,10.82
2022-11-04T12:50:21.978Z,10.79
2022-11-04T12:55:37.246Z,10.63
2022-11-04T13:00:48.209Z,10.62
2022-11-04T13:05:54.366Z,10.56
2022-11-04T13:11:01.760Z,10.54
2022-11-04T13:16:09.751Z,10.52
2022-11-04T13:21:15.613Z,10.50
2022-11-04T13:26:18.263Z,10.45
2022-11-04T13:31:30.752Z,10.39
2022-11-04T13:36:40.888Z,10.42
2022-11-04T13:42:09.758Z,10.52
2022-11-04T13:47:22.249Z,10.57
2022-11-04T13:52:29.351Z,10.67
2022-11-04T13:57:52.250Z,10.72
2022-11-04T14:02:56.100Z,10.73
2022-11-04T14:08:11.071Z,10.66
2022-11-04T14:13:44.571Z,10.65
2022-11-04T14:18:49.896Z,10.54
2022-11-04T14:23:54.406Z,10.52
2022-11-04T14:29:03.602Z,10.54
2022-11-04T14:34:08.088Z,10.51
2022-11-04T14:39:23.185Z,10.39
2022-11-04T14:44:30.717Z,10.29
2022-11-04T14:49:46.980Z,10.24
2022-11-04T14:54:50.011Z,10.16
2022-11-04T14:59:51.704Z,10.08
2022-11-04T15:04:58.778Z,10.07
2022-11-04T15:10:02.598Z,10.02
2022-11-04T15:15:33.154Z,10.00
2022-11-04T15:20:45.050Z,9.94
2022-11-04T15:25:49.065Z,9.89
2022-11-04T15:30:59.863Z,9.84
2022-11-04T15:36:03.514Z,9.79
2022-11-04T15:41:05.676Z,9.77
2022-11-04T15:46:18.025Z,9.71
2022-11-04T15:51:23.533Z,9.67
2022-11-04T15:56:28.034Z,9.69
2022-11-04T16:01:29.864Z,9.66
2022-11-04T16:06:35.977Z,9.64
2022-11-04T16:11:39.196Z,9.63
2022-11-04T16:16:47.947Z,9.69
2022-11-04T16:21:59.471Z,9.64
2022-11-04T16:27:02.028Z,9.63
2022-11-04T16:32:07.607Z,9.64
2022-11-04T16:37:10.937Z,9.63
2022-11-04T16:42:14.317Z,9.59
2022-11-04T16:47:17.708Z,9.58
2022-11-04T16:52:24.126Z,9.58
2022-11-04T16:57:26.661Z,9.56
2022-11-04T17:02:31.170Z,9.63
2022-11-04T17:07:52.143Z,9.64
2022-11-04T17:12:55.786Z,9.63
2022-11-04T17:17:57.422Z,9.73
2022-11-04T17:23:00.868Z,9.62
2022-11-04T17:28:02.838Z,9.73
2022-11-04T17:33:04.926Z,9.59
2022-11-04T17:38:10.031Z,9.63
2022-11-04T17:43:12.880Z,9.63
2022-11-04T17:48:14.944Z,9.52
2022-11-04T17:53:20.614Z,9.63
2022-11-04T17:58:22.259Z,9.69
2022-11-04T18:03:24.276Z,9.58
2022-11-04T18:08:27.310Z,9.57
2022-11-04T18:13:29.432Z,9.53
2022-11-04T18:18:31.302Z,9.61
2022-11-04T18:23:35.003Z,9.72
2022-11-04T18:28:37.364Z,9.68
2022-11-04T18:33:39.079Z,9.66
2022-11-04T18:38:42.089Z,9.65
2022-11-04T18:43:44.031Z,9.63
2022-11-04T18:48:49.058Z,9.63
2022-11-04T18:53:52.864Z,9.81
2022-11-04T18:58:54.915Z,9.72
2022-11-04T19:03:57.817Z,9.82
2022-11-04T19:09:13.344Z,9.95
2022-11-04T19:14:27.090Z,9.95
2022-11-04T19:19:29.142Z,10.19
2022-11-04T19:24:32.267Z,10.14
2022-11-04T19:29:34.327Z,10.18
2022-11-04T19:34:37.496Z,10.12
2022-11-04T19:39:41.585Z,9.90
2022-11-04T19:44:44.247Z,9.71
2022-11-04T19:49:46.295Z,9.85
2022-11-04T19:54:49.968Z,10.04
2022-11-04T19:59:51.737Z,10.08
2022-11-04T20:04:53.609Z,10.27
2022-11-04T20:09:56.700Z,10.28
2022-11-04T20:14:58.706Z,10.27
2022-11-04T20:20:00.918Z,10.32
2022-11-04T20:25:04.687Z,10.39
2022-11-04T20:30:07.619Z,10.28
2022-11-04T20:35:09.459Z,10.23
2022-11-04T20:40:13.623Z,10.26
2022-11-04T20:45:16.391Z,10.19
2022-11-04T20:50:18.232Z,10.14
2022-11-04T20:55:22.493Z,10.19
2022-11-04T21:00:24.689Z,10.15
2022-11-04T21:05:27.016Z,10.08
2022-11-04T21:10:33.041Z,10.08
2022-11-04T21:15:36.593Z,10.07
2022-11-04T21:20:45.268Z,10.08
2022-11-04T21:25:51.593Z,10.09
2022-11-04T21:30:54.715Z,9.99
2022-11-04T21:36:02.678Z,9.91
2022-11-04T21:41:09.910Z,9.95
2022-11-04T21:46:14.803Z,9.93
2022-11-04T21:51:23.509Z,9.81
2022-11-04T21:56:33.041Z,9.89
2022-11-04T22:01:38.366Z,9.84
2022-11-04T22:06:41.382Z,9.80
2022-11-04T22:11:52.840Z,9.86
2022-11-04T22:17:06.975Z,9.76
2022-11-04T22:22:10.673Z,9.72
2022-11-04T22:27:13.892Z,9.77
2022-11-04T22:32:16.127Z,9.76
2022-11-04T22:37:18.171Z,9.72
2022-11-04T22:42:21.548Z,9.75
2022-11-04T22:47:23.583Z,9.70
2022-11-04T22:52:25.683Z,9.70
2022-11-04T22:57:28.987Z,9.72
2022-11-04T23:02:36.634Z,9.66
2022-11-04T23:07:39.890Z,9.60
2022-11-04T23:12:43.849Z,9.64
2022-11-04T23:17:46.432Z,9.60
2022-11-04T23:22:48.463Z,9.56
2022-11-04T23:27:57.142Z,9.60
2022-11-04T23:33:01.131Z,9.53
2022-11-04T23:38:03.887Z,9.47
2022-11-04T23:43:07.529Z,9.49
2022-11-04T23:48:10.766Z,9.26
2022-11-04T23:53:13.764Z,9.45
2022-11-04T23:58:17.234Z,9.43
